sensor_id;sensor_type;location;lat;lon;timestamp;P1;durP1;ratioP1;P2;durP2;ratioP2
23338;SDS011;11841;49.368;20.962;2023-05-10T00:02:30;4.85;;;3.05;;
23338;SDS011;11841;49.368;20.962;2023-05-10T00:05:16;7.72;;;3.20;;
23338;SDS011;11841;49.368;20.962;2023-05-10T00:08:01;10.65;;;3.90;;
23338;SDS011;11841;49.368;20.962;2023-05-10T00:10:47;5.43;;;2.83;;
23338;SDS011;11841;49.368;20.962;2023-05-10T00:13:32;7.50;;;3.88;;
23338;SDS011;11841;49.368;20.962;2023-05-10T00:16:17;6.88;;;3.72;;
23338;SDS011;11841;49.368;20.962;2023-05-10T00:19:03;6.28;;;3.25;;
23338;SDS011;11841;49.368;20.962;2023-05-10T00:21:48;5.35;;;3.30;;
23338;SDS011;11841;49.368;20.962;2023-05-10T00:24:38;5.95;;;3.20;;
23338;SDS011;11841;49.368;20.962;2023-05-10T00:27:23;4.97;;;3.25;;
23338;SDS011;11841;49.368;20.962;2023-05-10T00:30:09;6.47;;;3.75;;
23338;SDS011;11841;49.368;20.962;2023-05-10T00:32:54;5.20;;;3.85;;
23338;SDS011;11841;49.368;20.962;2023-05-10T00:35:39;4.50;;;3.67;;
23338;SDS011;11841;49.368;20.962;2023-05-10T00:38:25;6.90;;;3.92;;
23338;SDS011;11841;49.368;20.962;2023-05-10T00:41:10;8.95;;;3.72;;
23338;SDS011;11841;49.368;20.962;2023-05-10T00:43:55;7.10;;;3.25;;
23338;SDS011;11841;49.368;20.962;2023-05-10T00:46:41;5.38;;;3.58;;
23338;SDS011;11841;49.368;20.962;2023-05-10T00:49:26;7.32;;;3.03;;
23338;SDS011;11841;49.368;20.962;2023-05-10T00:52:12;4.25;;;3.53;;
23338;SDS011;11841;49.368;20.962;2023-05-10T00:54:57;5.72;;;3.50;;
23338;SDS011;11841;49.368;20.962;2023-05-10T00:57:43;5.35;;;3.75;;
23338;SDS011;11841;49.368;20.962;2023-05-10T01:00:29;3.47;;;3.17;;
23338;SDS011;11841;49.368;20.962;2023-05-10T01:03:14;4.10;;;2.92;;
23338;SDS011;11841;49.368;20.962;2023-05-10T01:06:00;4.05;;;2.95;;
23338;SDS011;11841;49.368;20.962;2023-05-10T01:08:45;5.75;;;3.63;;
23338;SDS011;11841;49.368;20.962;2023-05-10T01:11:30;3.83;;;3.20;;
23338;SDS011;11841;49.368;20.962;2023-05-10T01:14:16;6.22;;;3.30;;
23338;SDS011;11841;49.368;20.962;2023-05-10T01:19:51;4.95;;;3.15;;
23338;SDS011;11841;49.368;20.962;2023-05-10T01:22:41;4.03;;;3.13;;
23338;SDS011;11841;49.368;20.962;2023-05-10T01:25:37;6.15;;;3.33;;
23338;SDS011;11841;49.368;20.962;2023-05-10T01:35:07;5.85;;;3.70;;
23338;SDS011;11841;49.368;20.962;2023-05-10T01:38:01;5.38;;;3.05;;
23338;SDS011;11841;49.368;20.962;2023-05-10T01:40:58;4.00;;;3.13;;
23338;SDS011;11841;49.368;20.962;2023-05-10T01:47:01;6.30;;;3.00;;
23338;SDS011;11841;49.368;20.962;2023-05-10T01:50:09;5.65;;;3.08;;
23338;SDS011;11841;49.368;20.962;2023-05-10T01:53:01;4.45;;;3.15;;
23338;SDS011;11841;49.368;20.962;2023-05-10T01:55:50;5.10;;;3.78;;
23338;SDS011;11841;49.368;20.962;2023-05-10T01:58:38;7.43;;;2.90;;
23338;SDS011;11841;49.368;20.962;2023-05-10T02:01:28;7.13;;;3.42;;
23338;SDS011;11841;49.368;20.962;2023-05-10T02:04:15;7.30;;;3.45;;
23338;SDS011;11841;49.368;20.962;2023-05-10T02:07:02;4.18;;;2.85;;
23338;SDS011;11841;49.368;20.962;2023-05-10T02:09:48;4.28;;;2.70;;
23338;SDS011;11841;49.368;20.962;2023-05-10T02:12:36;3.28;;;2.63;;
23338;SDS011;11841;49.368;20.962;2023-05-10T02:15:24;6.10;;;3.22;;
23338;SDS011;11841;49.368;20.962;2023-05-10T02:18:11;5.55;;;3.22;;
23338;SDS011;11841;49.368;20.962;2023-05-10T02:20:58;4.68;;;3.22;;
23338;SDS011;11841;49.368;20.962;2023-05-10T02:23:45;4.45;;;3.08;;
23338;SDS011;11841;49.368;20.962;2023-05-10T02:26:31;5.72;;;3.70;;
23338;SDS011;11841;49.368;20.962;2023-05-10T02:29:19;5.55;;;3.92;;
23338;SDS011;11841;49.368;20.962;2023-05-10T02:32:05;5.85;;;3.15;;
23338;SDS011;11841;49.368;20.962;2023-05-10T02:34:51;3.28;;;2.95;;
23338;SDS011;11841;49.368;20.962;2023-05-10T02:37:37;4.13;;;2.70;;
23338;SDS011;11841;49.368;20.962;2023-05-10T02:40:24;3.80;;;2.90;;
23338;SDS011;11841;49.368;20.962;2023-05-10T02:43:14;5.65;;;2.75;;
23338;SDS011;11841;49.368;20.962;2023-05-10T02:46:01;5.25;;;3.38;;
23338;SDS011;11841;49.368;20.962;2023-05-10T02:48:47;10.30;;;3.50;;
23338;SDS011;11841;49.368;20.962;2023-05-10T02:51:34;6.40;;;3.40;;
23338;SDS011;11841;49.368;20.962;2023-05-10T02:54:24;3.60;;;3.13;;
23338;SDS011;11841;49.368;20.962;2023-05-10T02:57:15;4.80;;;2.90;;
23338;SDS011;11841;49.368;20.962;2023-05-10T03:00:03;5.70;;;3.42;;
23338;SDS011;11841;49.368;20.962;2023-05-10T03:02:49;6.43;;;3.30;;
23338;SDS011;11841;49.368;20.962;2023-05-10T03:05:35;7.10;;;3.45;;
23338;SDS011;11841;49.368;20.962;2023-05-10T03:08:20;6.18;;;3.40;;
23338;SDS011;11841;49.368;20.962;2023-05-10T03:11:24;4.60;;;3.22;;
23338;SDS011;11841;49.368;20.962;2023-05-10T03:20:44;5.60;;;3.47;;
23338;SDS011;11841;49.368;20.962;2023-05-10T03:26:47;3.83;;;3.22;;
23338;SDS011;11841;49.368;20.962;2023-05-10T03:29:35;6.80;;;3.28;;
23338;SDS011;11841;49.368;20.962;2023-05-10T03:32:22;4.70;;;3.38;;
23338;SDS011;11841;49.368;20.962;2023-05-10T03:35:11;6.10;;;3.28;;
23338;SDS011;11841;49.368;20.962;2023-05-10T03:37:58;4.53;;;3.20;;
23338;SDS011;11841;49.368;20.962;2023-05-10T03:40:43;7.00;;;3.75;;
23338;SDS011;11841;49.368;20.962;2023-05-10T03:43:29;5.70;;;3.38;;
23338;SDS011;11841;49.368;20.962;2023-05-10T03:46:14;6.45;;;2.95;;
23338;SDS011;11841;49.368;20.962;2023-05-10T03:48:59;5.97;;;3.50;;
23338;SDS011;11841;49.368;20.962;2023-05-10T03:51:44;13.57;;;3.05;;
23338;SDS011;11841;49.368;20.962;2023-05-10T03:54:30;4.85;;;2.85;;
23338;SDS011;11841;49.368;20.962;2023-05-10T03:57:15;4.57;;;3.13;;
23338;SDS011;11841;49.368;20.962;2023-05-10T04:00:01;6.45;;;3.85;;
23338;SDS011;11841;49.368;20.962;2023-05-10T04:02:47;5.22;;;3.13;;
23338;SDS011;11841;49.368;20.962;2023-05-10T04:05:33;4.95;;;3.53;;
23338;SDS011;11841;49.368;20.962;2023-05-10T04:08:18;5.63;;;3.22;;
23338;SDS011;11841;49.368;20.962;2023-05-10T04:11:10;6.10;;;3.63;;
23338;SDS011;11841;49.368;20.962;2023-05-10T04:13:57;6.68;;;3.45;;
23338;SDS011;11841;49.368;20.962;2023-05-10T04:16:42;4.85;;;3.30;;
23338;SDS011;11841;49.368;20.962;2023-05-10T04:19:30;5.10;;;3.70;;
23338;SDS011;11841;49.368;20.962;2023-05-10T04:22:16;7.60;;;4.25;;
23338;SDS011;11841;49.368;20.962;2023-05-10T04:25:02;5.70;;;3.70;;
23338;SDS011;11841;49.368;20.962;2023-05-10T04:27:47;6.43;;;4.47;;
23338;SDS011;11841;49.368;20.962;2023-05-10T04:30:33;7.82;;;4.60;;
23338;SDS011;11841;49.368;20.962;2023-05-10T04:33:18;5.20;;;3.80;;
23338;SDS011;11841;49.368;20.962;2023-05-10T04:39:07;5.80;;;3.55;;
23338;SDS011;11841;49.368;20.962;2023-05-10T04:41:54;4.78;;;3.72;;
23338;SDS011;11841;49.368;20.962;2023-05-10T04:44:39;5.95;;;3.67;;
23338;SDS011;11841;49.368;20.962;2023-05-10T04:47:25;7.95;;;3.78;;
23338;SDS011;11841;49.368;20.962;2023-05-10T04:50:10;6.90;;;3.88;;
23338;SDS011;11841;49.368;20.962;2023-05-10T04:52:56;7.85;;;4.05;;
23338;SDS011;11841;49.368;20.962;2023-05-10T04:55:41;4.97;;;3.55;;
23338;SDS011;11841;49.368;20.962;2023-05-10T04:58:26;3.55;;;3.10;;
23338;SDS011;11841;49.368;20.962;2023-05-10T05:01:12;7.13;;;4.13;;
23338;SDS011;11841;49.368;20.962;2023-05-10T05:03:57;5.72;;;4.28;;
23338;SDS011;11841;49.368;20.962;2023-05-10T05:06:43;7.32;;;3.25;;
23338;SDS011;11841;49.368;20.962;2023-05-10T05:09:28;8.07;;;4.70;;
23338;SDS011;11841;49.368;20.962;2023-05-10T05:12:14;6.05;;;3.83;;
23338;SDS011;11841;49.368;20.962;2023-05-10T05:14:59;6.60;;;3.88;;
23338;SDS011;11841;49.368;20.962;2023-05-10T05:17:45;6.20;;;4.22;;
23338;SDS011;11841;49.368;20.962;2023-05-10T05:20:31;5.20;;;4.35;;
23338;SDS011;11841;49.368;20.962;2023-05-10T05:23:17;5.35;;;4.07;;
23338;SDS011;11841;49.368;20.962;2023-05-10T05:26:05;6.72;;;4.10;;
23338;SDS011;11841;49.368;20.962;2023-05-10T05:28:50;6.80;;;3.92;;
23338;SDS011;11841;49.368;20.962;2023-05-10T05:31:38;7.18;;;4.57;;
23338;SDS011;11841;49.368;20.962;2023-05-10T05:34:24;6.35;;;4.25;;
23338;SDS011;11841;49.368;20.962;2023-05-10T05:37:12;9.73;;;4.88;;
23338;SDS011;11841;49.368;20.962;2023-05-10T05:40:01;4.78;;;3.83;;
23338;SDS011;11841;49.368;20.962;2023-05-10T05:42:47;6.00;;;4.22;;
23338;SDS011;11841;49.368;20.962;2023-05-10T05:45:32;5.10;;;4.00;;
23338;SDS011;11841;49.368;20.962;2023-05-10T05:48:18;13.27;;;4.55;;
23338;SDS011;11841;49.368;20.962;2023-05-10T05:51:03;13.82;;;3.75;;
23338;SDS011;11841;49.368;20.962;2023-05-10T05:53:51;6.78;;;4.47;;
23338;SDS011;11841;49.368;20.962;2023-05-10T05:56:36;5.90;;;3.75;;
23338;SDS011;11841;49.368;20.962;2023-05-10T05:59:22;5.55;;;3.30;;
23338;SDS011;11841;49.368;20.962;2023-05-10T06:02:09;7.25;;;3.70;;
23338;SDS011;11841;49.368;20.962;2023-05-10T06:04:55;6.38;;;3.50;;
23338;SDS011;11841;49.368;20.962;2023-05-10T06:07:40;6.13;;;4.10;;
23338;SDS011;11841;49.368;20.962;2023-05-10T06:10:29;5.03;;;3.20;;
23338;SDS011;11841;49.368;20.962;2023-05-10T06:13:15;4.93;;;3.28;;
23338;SDS011;11841;49.368;20.962;2023-05-10T06:16:02;4.78;;;3.55;;
23338;SDS011;11841;49.368;20.962;2023-05-10T06:18:48;4.28;;;2.80;;
23338;SDS011;11841;49.368;20.962;2023-05-10T06:21:33;6.80;;;3.10;;
23338;SDS011;11841;49.368;20.962;2023-05-10T06:24:20;4.45;;;3.25;;
23338;SDS011;11841;49.368;20.962;2023-05-10T06:27:06;4.88;;;3.08;;
23338;SDS011;11841;49.368;20.962;2023-05-10T06:29:51;8.98;;;3.42;;
23338;SDS011;11841;49.368;20.962;2023-05-10T06:32:49;5.45;;;2.83;;
23338;SDS011;11841;49.368;20.962;2023-05-10T06:35:34;5.03;;;3.13;;
23338;SDS011;11841;49.368;20.962;2023-05-10T06:38:20;6.15;;;3.10;;
23338;SDS011;11841;49.368;20.962;2023-05-10T06:41:05;5.63;;;3.55;;
23338;SDS011;11841;49.368;20.962;2023-05-10T06:43:50;3.22;;;2.53;;
23338;SDS011;11841;49.368;20.962;2023-05-10T06:46:36;7.65;;;2.60;;
23338;SDS011;11841;49.368;20.962;2023-05-10T06:49:21;4.40;;;2.90;;
23338;SDS011;11841;49.368;20.962;2023-05-10T06:52:07;4.00;;;2.92;;
23338;SDS011;11841;49.368;20.962;2023-05-10T06:54:52;6.05;;;3.55;;
23338;SDS011;11841;49.368;20.962;2023-05-10T06:57:37;4.85;;;3.28;;
23338;SDS011;11841;49.368;20.962;2023-05-10T07:00:23;3.72;;;2.50;;
23338;SDS011;11841;49.368;20.962;2023-05-10T07:03:09;6.15;;;3.42;;
23338;SDS011;11841;49.368;20.962;2023-05-10T07:05:59;5.95;;;3.22;;
23338;SDS011;11841;49.368;20.962;2023-05-10T07:08:48;4.03;;;3.28;;
23338;SDS011;11841;49.368;20.962;2023-05-10T07:11:34;6.75;;;2.90;;
23338;SDS011;11841;49.368;20.962;2023-05-10T07:14:20;4.72;;;2.92;;
23338;SDS011;11841;49.368;20.962;2023-05-10T07:17:05;3.85;;;2.72;;
23338;SDS011;11841;49.368;20.962;2023-05-10T07:19:50;4.38;;;3.22;;
23338;SDS011;11841;49.368;20.962;2023-05-10T07:22:36;8.60;;;2.85;;
23338;SDS011;11841;49.368;20.962;2023-05-10T07:25:21;5.32;;;2.65;;
23338;SDS011;11841;49.368;20.962;2023-05-10T07:28:06;3.70;;;2.63;;
23338;SDS011;11841;49.368;20.962;2023-05-10T07:30:52;5.03;;;3.25;;
23338;SDS011;11841;49.368;20.962;2023-05-10T07:33:37;5.43;;;2.70;;
23338;SDS011;11841;49.368;20.962;2023-05-10T07:36:22;5.57;;;2.80;;
23338;SDS011;11841;49.368;20.962;2023-05-10T07:39:08;4.72;;;2.85;;
23338;SDS011;11841;49.368;20.962;2023-05-10T07:41:54;3.85;;;3.05;;
23338;SDS011;11841;49.368;20.962;2023-05-10T07:44:40;4.60;;;3.35;;
23338;SDS011;11841;49.368;20.962;2023-05-10T07:47:26;4.15;;;3.13;;
23338;SDS011;11841;49.368;20.962;2023-05-10T07:50:11;6.68;;;3.33;;
23338;SDS011;11841;49.368;20.962;2023-05-10T07:52:57;3.90;;;2.92;;
23338;SDS011;11841;49.368;20.962;2023-05-10T07:55:42;5.05;;;3.15;;
23338;SDS011;11841;49.368;20.962;2023-05-10T07:58:27;10.20;;;3.45;;
23338;SDS011;11841;49.368;20.962;2023-05-10T08:01:12;5.00;;;3.17;;
23338;SDS011;11841;49.368;20.962;2023-05-10T08:03:58;5.90;;;3.08;;
23338;SDS011;11841;49.368;20.962;2023-05-10T08:06:43;3.60;;;3.25;;
23338;SDS011;11841;49.368;20.962;2023-05-10T08:09:29;4.15;;;2.97;;
23338;SDS011;11841;49.368;20.962;2023-05-10T08:12:14;6.82;;;3.05;;
23338;SDS011;11841;49.368;20.962;2023-05-10T08:14:59;5.45;;;2.67;;
23338;SDS011;11841;49.368;20.962;2023-05-10T08:17:45;5.03;;;3.00;;
23338;SDS011;11841;49.368;20.962;2023-05-10T08:20:30;5.57;;;2.63;;
23338;SDS011;11841;49.368;20.962;2023-05-10T08:23:16;3.95;;;2.50;;
23338;SDS011;11841;49.368;20.962;2023-05-10T08:26:01;4.38;;;2.58;;
23338;SDS011;11841;49.368;20.962;2023-05-10T08:28:46;3.25;;;2.28;;
23338;SDS011;11841;49.368;20.962;2023-05-10T08:31:32;2.60;;;2.40;;
23338;SDS011;11841;49.368;20.962;2023-05-10T08:34:17;5.88;;;3.15;;
23338;SDS011;11841;49.368;20.962;2023-05-10T08:37:03;3.40;;;2.50;;
23338;SDS011;11841;49.368;20.962;2023-05-10T08:39:48;4.95;;;2.67;;
23338;SDS011;11841;49.368;20.962;2023-05-10T08:42:34;7.68;;;2.72;;
23338;SDS011;11841;49.368;20.962;2023-05-10T08:45:22;10.10;;;3.05;;
23338;SDS011;11841;49.368;20.962;2023-05-10T08:48:10;5.22;;;2.50;;
23338;SDS011;11841;49.368;20.962;2023-05-10T08:50:56;6.85;;;2.83;;
23338;SDS011;11841;49.368;20.962;2023-05-10T08:53:45;4.07;;;2.80;;
23338;SDS011;11841;49.368;20.962;2023-05-10T08:56:31;3.97;;;2.58;;
23338;SDS011;11841;49.368;20.962;2023-05-10T08:59:16;5.20;;;2.65;;
23338;SDS011;11841;49.368;20.962;2023-05-10T09:02:02;2.90;;;2.45;;
23338;SDS011;11841;49.368;20.962;2023-05-10T09:04:49;5.10;;;2.80;;
23338;SDS011;11841;49.368;20.962;2023-05-10T09:07:35;5.55;;;2.83;;
23338;SDS011;11841;49.368;20.962;2023-05-10T09:10:21;4.03;;;2.50;;
23338;SDS011;11841;49.368;20.962;2023-05-10T09:13:07;3.92;;;2.70;;
23338;SDS011;11841;49.368;20.962;2023-05-10T09:15:55;4.45;;;2.40;;
23338;SDS011;11841;49.368;20.962;2023-05-10T09:18:48;6.47;;;2.58;;
23338;SDS011;11841;49.368;20.962;2023-05-10T09:21:37;2.83;;;2.40;;
23338;SDS011;11841;49.368;20.962;2023-05-10T09:24:26;3.45;;;2.20;;
23338;SDS011;11841;49.368;20.962;2023-05-10T09:27:14;3.13;;;2.40;;
23338;SDS011;11841;49.368;20.962;2023-05-10T09:30:00;4.68;;;2.63;;
23338;SDS011;11841;49.368;20.962;2023-05-10T09:32:46;5.40;;;2.33;;
23338;SDS011;11841;49.368;20.962;2023-05-10T09:35:32;5.78;;;2.45;;
23338;SDS011;11841;49.368;20.962;2023-05-10T09:38:18;3.13;;;2.00;;
23338;SDS011;11841;49.368;20.962;2023-05-10T09:41:04;4.28;;;2.58;;
23338;SDS011;11841;49.368;20.962;2023-05-10T09:43:49;5.75;;;2.55;;
23338;SDS011;11841;49.368;20.962;2023-05-10T09:46:35;3.83;;;2.70;;
23338;SDS011;11841;49.368;20.962;2023-05-10T09:49:21;5.30;;;2.42;;
23338;SDS011;11841;49.368;20.962;2023-05-10T09:52:07;10.57;;;2.42;;
23338;SDS011;11841;49.368;20.962;2023-05-10T09:54:53;5.53;;;2.55;;
23338;SDS011;11841;49.368;20.962;2023-05-10T09:57:38;3.58;;;2.65;;
23338;SDS011;11841;49.368;20.962;2023-05-10T10:00:25;5.28;;;2.63;;
23338;SDS011;11841;49.368;20.962;2023-05-10T10:03:13;3.90;;;2.70;;
23338;SDS011;11841;49.368;20.962;2023-05-10T10:06:00;2.92;;;2.33;;
23338;SDS011;11841;49.368;20.962;2023-05-10T10:08:45;4.93;;;2.47;;
23338;SDS011;11841;49.368;20.962;2023-05-10T10:11:31;3.85;;;2.63;;
23338;SDS011;11841;49.368;20.962;2023-05-10T10:14:18;3.97;;;2.50;;
23338;SDS011;11841;49.368;20.962;2023-05-10T10:17:03;4.97;;;2.40;;
23338;SDS011;11841;49.368;20.962;2023-05-10T10:19:52;4.32;;;2.60;;
23338;SDS011;11841;49.368;20.962;2023-05-10T10:22:39;5.57;;;2.60;;
23338;SDS011;11841;49.368;20.962;2023-05-10T10:25:25;6.32;;;2.33;;
23338;SDS011;11841;49.368;20.962;2023-05-10T10:34:30;4.93;;;2.60;;
23338;SDS011;11841;49.368;20.962;2023-05-10T10:37:16;3.67;;;2.30;;
23338;SDS011;11841;49.368;20.962;2023-05-10T10:40:13;4.05;;;2.38;;
23338;SDS011;11841;49.368;20.962;2023-05-10T10:43:23;3.95;;;2.30;;
23338;SDS011;11841;49.368;20.962;2023-05-10T10:49:09;3.10;;;2.20;;
23338;SDS011;11841;49.368;20.962;2023-05-10T10:55:16;5.00;;;2.25;;
23338;SDS011;11841;49.368;20.962;2023-05-10T10:58:09;3.20;;;2.35;;
23338;SDS011;11841;49.368;20.962;2023-05-10T11:01:08;11.95;;;4.53;;
23338;SDS011;11841;49.368;20.962;2023-05-10T11:06:47;3.20;;;2.65;;
23338;SDS011;11841;49.368;20.962;2023-05-10T11:09:38;3.38;;;2.40;;
23338;SDS011;11841;49.368;20.962;2023-05-10T11:12:25;2.60;;;2.40;;
23338;SDS011;11841;49.368;20.962;2023-05-10T11:15:10;4.25;;;2.53;;
23338;SDS011;11841;49.368;20.962;2023-05-10T11:17:55;4.82;;;2.80;;
23338;SDS011;11841;49.368;20.962;2023-05-10T11:20:41;3.80;;;2.28;;
23338;SDS011;11841;49.368;20.962;2023-05-10T11:23:33;3.42;;;2.40;;
23338;SDS011;11841;49.368;20.962;2023-05-10T11:26:34;4.45;;;2.17;;
23338;SDS011;11841;49.368;20.962;2023-05-10T11:29:20;2.30;;;1.98;;
23338;SDS011;11841;49.368;20.962;2023-05-10T11:32:06;5.05;;;2.42;;
23338;SDS011;11841;49.368;20.962;2023-05-10T11:34:53;6.00;;;2.15;;
23338;SDS011;11841;49.368;20.962;2023-05-10T11:37:38;2.80;;;2.08;;
23338;SDS011;11841;49.368;20.962;2023-05-10T11:40:28;3.60;;;2.00;;
23338;SDS011;11841;49.368;20.962;2023-05-10T11:43:13;2.80;;;2.33;;
23338;SDS011;11841;49.368;20.962;2023-05-10T11:45:59;5.00;;;2.67;;
23338;SDS011;11841;49.368;20.962;2023-05-10T11:48:44;6.63;;;2.67;;
23338;SDS011;11841;49.368;20.962;2023-05-10T11:51:32;6.22;;;2.80;;
23338;SDS011;11841;49.368;20.962;2023-05-10T11:54:19;4.35;;;2.72;;
23338;SDS011;11841;49.368;20.962;2023-05-10T11:57:04;3.53;;;2.25;;
23338;SDS011;11841;49.368;20.962;2023-05-10T11:59:53;4.22;;;2.05;;
23338;SDS011;11841;49.368;20.962;2023-05-10T12:02:39;4.30;;;2.40;;
23338;SDS011;11841;49.368;20.962;2023-05-10T12:05:25;6.65;;;2.15;;
23338;SDS011;11841;49.368;20.962;2023-05-10T12:08:11;5.40;;;3.10;;
23338;SDS011;11841;49.368;20.962;2023-05-10T12:11:08;4.10;;;1.90;;
23338;SDS011;11841;49.368;20.962;2023-05-10T12:13:55;5.95;;;2.75;;
23338;SDS011;11841;49.368;20.962;2023-05-10T12:16:42;2.35;;;2.15;;
23338;SDS011;11841;49.368;20.962;2023-05-10T12:19:28;7.90;;;4.57;;
23338;SDS011;11841;49.368;20.962;2023-05-10T12:22:21;6.28;;;2.70;;
23338;SDS011;11841;49.368;20.962;2023-05-10T12:25:08;8.52;;;2.83;;
23338;SDS011;11841;49.368;20.962;2023-05-10T12:27:54;3.28;;;2.63;;
23338;SDS011;11841;49.368;20.962;2023-05-10T12:30:58;6.15;;;2.40;;
23338;SDS011;11841;49.368;20.962;2023-05-10T12:33:44;6.43;;;2.40;;
23338;SDS011;11841;49.368;20.962;2023-05-10T12:36:31;2.45;;;2.20;;
23338;SDS011;11841;49.368;20.962;2023-05-10T12:39:16;10.32;;;2.38;;
23338;SDS011;11841;49.368;20.962;2023-05-10T12:42:01;4.78;;;2.35;;
23338;SDS011;11841;49.368;20.962;2023-05-10T12:44:47;4.88;;;2.22;;
23338;SDS011;11841;49.368;20.962;2023-05-10T12:47:32;2.80;;;2.20;;
23338;SDS011;11841;49.368;20.962;2023-05-10T12:50:18;5.03;;;2.33;;
23338;SDS011;11841;49.368;20.962;2023-05-10T12:53:03;4.57;;;1.70;;
23338;SDS011;11841;49.368;20.962;2023-05-10T12:55:48;6.13;;;3.92;;
23338;SDS011;11841;49.368;20.962;2023-05-10T12:58:34;3.22;;;2.40;;
23338;SDS011;11841;49.368;20.962;2023-05-10T13:01:20;3.28;;;2.30;;
23338;SDS011;11841;49.368;20.962;2023-05-10T13:04:05;3.92;;;2.28;;
23338;SDS011;11841;49.368;20.962;2023-05-10T13:06:52;1.77;;;1.63;;
23338;SDS011;11841;49.368;20.962;2023-05-10T13:09:37;2.88;;;2.00;;
23338;SDS011;11841;49.368;20.962;2023-05-10T13:12:23;4.13;;;2.58;;
23338;SDS011;11841;49.368;20.962;2023-05-10T13:15:08;2.42;;;2.22;;
23338;SDS011;11841;49.368;20.962;2023-05-10T13:17:54;5.03;;;2.00;;
23338;SDS011;11841;49.368;20.962;2023-05-10T13:20:39;3.13;;;2.05;;
23338;SDS011;11841;49.368;20.962;2023-05-10T13:23:25;4.05;;;2.10;;
23338;SDS011;11841;49.368;20.962;2023-05-10T13:26:10;2.92;;;1.85;;
23338;SDS011;11841;49.368;20.962;2023-05-10T13:28:55;2.70;;;2.00;;
23338;SDS011;11841;49.368;20.962;2023-05-10T13:31:41;2.38;;;2.03;;
23338;SDS011;11841;49.368;20.962;2023-05-10T13:34:26;2.60;;;1.98;;
23338;SDS011;11841;49.368;20.962;2023-05-10T13:37:12;2.92;;;2.42;;
23338;SDS011;11841;49.368;20.962;2023-05-10T13:39:57;3.20;;;2.08;;
23338;SDS011;11841;49.368;20.962;2023-05-10T13:42:42;2.90;;;1.80;;
23338;SDS011;11841;49.368;20.962;2023-05-10T13:45:28;2.92;;;1.85;;
23338;SDS011;11841;49.368;20.962;2023-05-10T13:48:13;3.08;;;2.10;;
23338;SDS011;11841;49.368;20.962;2023-05-10T13:50:59;3.03;;;2.30;;
23338;SDS011;11841;49.368;20.962;2023-05-10T13:53:44;4.50;;;1.50;;
23338;SDS011;11841;49.368;20.962;2023-05-10T13:56:31;2.20;;;1.77;;
23338;SDS011;11841;49.368;20.962;2023-05-10T13:59:17;5.03;;;2.05;;
23338;SDS011;11841;49.368;20.962;2023-05-10T14:02:02;8.48;;;1.98;;
23338;SDS011;11841;49.368;20.962;2023-05-10T14:04:47;3.53;;;1.90;;
23338;SDS011;11841;49.368;20.962;2023-05-10T14:07:32;4.80;;;2.38;;
23338;SDS011;11841;49.368;20.962;2023-05-10T14:10:18;4.13;;;2.08;;
23338;SDS011;11841;49.368;20.962;2023-05-10T14:13:03;3.95;;;2.33;;
23338;SDS011;11841;49.368;20.962;2023-05-10T14:15:49;5.22;;;1.75;;
23338;SDS011;11841;49.368;20.962;2023-05-10T14:18:34;7.88;;;1.98;;
23338;SDS011;11841;49.368;20.962;2023-05-10T14:21:20;2.88;;;2.10;;
23338;SDS011;11841;49.368;20.962;2023-05-10T14:24:05;7.25;;;2.13;;
23338;SDS011;11841;49.368;20.962;2023-05-10T14:26:51;3.90;;;2.10;;
23338;SDS011;11841;49.368;20.962;2023-05-10T14:29:38;8.23;;;2.15;;
23338;SDS011;11841;49.368;20.962;2023-05-10T14:32:24;2.95;;;1.75;;
23338;SDS011;11841;49.368;20.962;2023-05-10T14:35:09;9.45;;;2.03;;
23338;SDS011;11841;49.368;20.962;2023-05-10T14:37:57;3.55;;;1.85;;
23338;SDS011;11841;49.368;20.962;2023-05-10T14:40:43;4.80;;;2.03;;
23338;SDS011;11841;49.368;20.962;2023-05-10T14:43:28;5.90;;;2.00;;
23338;SDS011;11841;49.368;20.962;2023-05-10T14:46:13;3.53;;;2.10;;
23338;SDS011;11841;49.368;20.962;2023-05-10T14:48:59;6.28;;;2.70;;
23338;SDS011;11841;49.368;20.962;2023-05-10T14:51:44;2.00;;;1.50;;
23338;SDS011;11841;49.368;20.962;2023-05-10T14:54:30;3.25;;;1.95;;
23338;SDS011;11841;49.368;20.962;2023-05-10T14:57:15;1.98;;;1.67;;
23338;SDS011;11841;49.368;20.962;2023-05-10T15:00:01;3.03;;;2.00;;
23338;SDS011;11841;49.368;20.962;2023-05-10T15:02:48;2.58;;;1.88;;
23338;SDS011;11841;49.368;20.962;2023-05-10T15:05:34;3.17;;;2.00;;
23338;SDS011;11841;49.368;20.962;2023-05-10T15:08:22;2.53;;;1.75;;
23338;SDS011;11841;49.368;20.962;2023-05-10T15:11:08;1.90;;;1.40;;
23338;SDS011;11841;49.368;20.962;2023-05-10T15:13:53;7.68;;;2.33;;
23338;SDS011;11841;49.368;20.962;2023-05-10T15:16:39;2.08;;;1.58;;
23338;SDS011;11841;49.368;20.962;2023-05-10T15:19:24;3.80;;;1.92;;
23338;SDS011;11841;49.368;20.962;2023-05-10T15:22:09;2.38;;;2.17;;
23338;SDS011;11841;49.368;20.962;2023-05-10T15:24:55;2.78;;;2.10;;
23338;SDS011;11841;49.368;20.962;2023-05-10T15:27:40;4.85;;;2.17;;
23338;SDS011;11841;49.368;20.962;2023-05-10T15:30:28;3.55;;;2.15;;
23338;SDS011;11841;49.368;20.962;2023-05-10T15:33:13;2.38;;;1.95;;
23338;SDS011;11841;49.368;20.962;2023-05-10T15:35:58;4.18;;;1.90;;
23338;SDS011;11841;49.368;20.962;2023-05-10T15:38:43;4.40;;;1.70;;
23338;SDS011;11841;49.368;20.962;2023-05-10T15:41:28;3.08;;;1.88;;
23338;SDS011;11841;49.368;20.962;2023-05-10T15:44:16;4.18;;;1.70;;
23338;SDS011;11841;49.368;20.962;2023-05-10T15:47:01;3.80;;;2.17;;
23338;SDS011;11841;49.368;20.962;2023-05-10T15:49:47;2.00;;;1.77;;
23338;SDS011;11841;49.368;20.962;2023-05-10T15:52:33;2.28;;;1.60;;
23338;SDS011;11841;49.368;20.962;2023-05-10T15:55:18;4.55;;;2.20;;
23338;SDS011;11841;49.368;20.962;2023-05-10T15:58:04;2.75;;;1.77;;
23338;SDS011;11841;49.368;20.962;2023-05-10T16:00:49;3.90;;;1.92;;
23338;SDS011;11841;49.368;20.962;2023-05-10T16:03:34;3.40;;;2.20;;
23338;SDS011;11841;49.368;20.962;2023-05-10T16:06:21;5.38;;;1.98;;
23338;SDS011;11841;49.368;20.962;2023-05-10T16:09:07;4.55;;;1.80;;
23338;SDS011;11841;49.368;20.962;2023-05-10T16:11:52;3.28;;;1.80;;
23338;SDS011;11841;49.368;20.962;2023-05-10T16:14:38;2.58;;;1.90;;
23338;SDS011;11841;49.368;20.962;2023-05-10T16:17:23;4.38;;;2.13;;
23338;SDS011;11841;49.368;20.962;2023-05-10T16:20:08;3.33;;;1.80;;
23338;SDS011;11841;49.368;20.962;2023-05-10T16:22:53;2.90;;;1.98;;
23338;SDS011;11841;49.368;20.962;2023-05-10T16:25:39;5.32;;;2.03;;
23338;SDS011;11841;49.368;20.962;2023-05-10T16:28:25;1.88;;;1.52;;
23338;SDS011;11841;49.368;20.962;2023-05-10T16:31:10;3.42;;;1.65;;
23338;SDS011;11841;49.368;20.962;2023-05-10T16:33:56;2.78;;;2.05;;
23338;SDS011;11841;49.368;20.962;2023-05-10T16:36:41;3.25;;;2.00;;
23338;SDS011;11841;49.368;20.962;2023-05-10T16:39:26;3.08;;;1.92;;
23338;SDS011;11841;49.368;20.962;2023-05-10T16:42:11;2.55;;;2.00;;
23338;SDS011;11841;49.368;20.962;2023-05-10T16:44:56;5.18;;;3.65;;
23338;SDS011;11841;49.368;20.962;2023-05-10T16:47:42;3.05;;;2.00;;
23338;SDS011;11841;49.368;20.962;2023-05-10T16:50:27;3.22;;;1.92;;
23338;SDS011;11841;49.368;20.962;2023-05-10T16:53:13;2.17;;;1.60;;
23338;SDS011;11841;49.368;20.962;2023-05-10T16:55:58;3.80;;;3.00;;
23338;SDS011;11841;49.368;20.962;2023-05-10T16:58:45;4.25;;;2.03;;
23338;SDS011;11841;49.368;20.962;2023-05-10T17:01:32;4.18;;;2.35;;
23338;SDS011;11841;49.368;20.962;2023-05-10T17:04:17;4.43;;;2.10;;
23338;SDS011;11841;49.368;20.962;2023-05-10T17:07:03;5.40;;;2.20;;
23338;SDS011;11841;49.368;20.962;2023-05-10T17:09:48;4.75;;;2.50;;